Terminal Aerodrome Forecast
Issued by NWS Cleveland, OH

Home | Current Version | Previous Version | Graphics & Text | Print | Product List | Glossary Off
Versions: 1 2 3 4 5 6 7 8 9 10 11 12 13 14 15 16 17 18

315
FTUS41 KCLE 311134
TAFMFD
TAF
KMFD 311134Z 3112/0112 24004KT P6SM VCSH SCT025 OVC035
      TEMPO 3114/3117 BKN025 OVC035
     FM311900 32008KT P6SM VCTS SCT030CB OVC035
     FM010000 35010KT P6SM BKN035=

USA.gov is the U.S. government's official web portal to all federal, state and local government web resources and services.